sensor_id;sensor_type;location;lat;lon;timestamp;P1;durP1;ratioP1;P2;durP2;ratioP2
45322;SDS011;31382;50.200;8.674;2022-12-29T00:00:32;2.08;;;0.60;;
45322;SDS011;31382;50.200;8.674;2022-12-29T00:05:33;1.88;;;0.70;;
45322;SDS011;31382;50.200;8.674;2022-12-29T00:10:35;3.38;;;0.70;;
45322;SDS011;31382;50.200;8.674;2022-12-29T00:15:36;2.42;;;0.70;;
45322;SDS011;31382;50.200;8.674;2022-12-29T00:20:37;4.68;;;0.80;;
45322;SDS011;31382;50.200;8.674;2022-12-29T00:26:02;1.65;;;0.80;;
45322;SDS011;31382;50.200;8.674;2022-12-29T00:31:23;3.15;;;0.88;;
45322;SDS011;31382;50.200;8.674;2022-12-29T00:36:50;4.10;;;0.90;;
45322;SDS011;31382;50.200;8.674;2022-12-29T00:41:52;3.70;;;1.55;;
45322;SDS011;31382;50.200;8.674;2022-12-29T00:47:12;2.33;;;1.00;;
45322;SDS011;31382;50.200;8.674;2022-12-29T00:52:14;2.97;;;1.38;;
45322;SDS011;31382;50.200;8.674;2022-12-29T00:57:15;4.07;;;0.80;;
45322;SDS011;31382;50.200;8.674;2022-12-29T01:02:18;2.42;;;0.70;;
45322;SDS011;31382;50.200;8.674;2022-12-29T01:07:19;2.97;;;1.42;;
45322;SDS011;31382;50.200;8.674;2022-12-29T01:12:21;1.50;;;0.60;;
45322;SDS011;31382;50.200;8.674;2022-12-29T01:17:41;5.40;;;0.60;;
45322;SDS011;31382;50.200;8.674;2022-12-29T01:22:43;1.50;;;0.60;;
45322;SDS011;31382;50.200;8.674;2022-12-29T01:27:44;1.10;;;0.70;;
45322;SDS011;31382;50.200;8.674;2022-12-29T01:32:46;3.35;;;0.52;;
45322;SDS011;31382;50.200;8.674;2022-12-29T01:37:47;0.80;;;0.50;;
45322;SDS011;31382;50.200;8.674;2022-12-29T01:42:48;1.55;;;0.50;;
45322;SDS011;31382;50.200;8.674;2022-12-29T01:47:52;2.75;;;0.52;;
45322;SDS011;31382;50.200;8.674;2022-12-29T01:53:03;2.38;;;0.47;;
45322;SDS011;31382;50.200;8.674;2022-12-29T01:58:08;2.85;;;0.60;;
45322;SDS011;31382;50.200;8.674;2022-12-29T02:03:11;3.60;;;0.50;;
45322;SDS011;31382;50.200;8.674;2022-12-29T02:08:14;3.63;;;0.40;;
45322;SDS011;31382;50.200;8.674;2022-12-29T02:13:16;1.75;;;0.50;;
45322;SDS011;31382;50.200;8.674;2022-12-29T02:18:22;0.82;;;0.40;;
45322;SDS011;31382;50.200;8.674;2022-12-29T02:34:22;1.25;;;0.65;;
45322;SDS011;31382;50.200;8.674;2022-12-29T02:44:52;0.70;;;0.50;;
45322;SDS011;31382;50.200;8.674;2022-12-29T02:50:03;1.30;;;0.30;;
45322;SDS011;31382;50.200;8.674;2022-12-29T02:55:16;1.30;;;0.40;;
45322;SDS011;31382;50.200;8.674;2022-12-29T03:00:18;1.30;;;0.50;;
45322;SDS011;31382;50.200;8.674;2022-12-29T03:05:39;1.25;;;0.50;;
45322;SDS011;31382;50.200;8.674;2022-12-29T03:16:07;0.75;;;0.32;;
45322;SDS011;31382;50.200;8.674;2022-12-29T03:26:54;1.13;;;0.20;;
45322;SDS011;31382;50.200;8.674;2022-12-29T03:31:58;1.30;;;0.30;;
45322;SDS011;31382;50.200;8.674;2022-12-29T03:37:05;4.20;;;0.85;;
45322;SDS011;31382;50.200;8.674;2022-12-29T03:42:13;0.43;;;0.40;;
45322;SDS011;31382;50.200;8.674;2022-12-29T03:47:16;0.80;;;0.40;;
45322;SDS011;31382;50.200;8.674;2022-12-29T03:52:17;2.15;;;0.40;;
45322;SDS011;31382;50.200;8.674;2022-12-29T03:57:19;2.20;;;0.30;;
45322;SDS011;31382;50.200;8.674;2022-12-29T04:02:20;2.63;;;0.32;;
45322;SDS011;31382;50.200;8.674;2022-12-29T04:07:22;1.25;;;0.40;;
45322;SDS011;31382;50.200;8.674;2022-12-29T04:12:23;1.85;;;0.40;;
45322;SDS011;31382;50.200;8.674;2022-12-29T04:17:25;2.28;;;0.40;;
45322;SDS011;31382;50.200;8.674;2022-12-29T04:22:26;1.27;;;0.30;;
45322;SDS011;31382;50.200;8.674;2022-12-29T04:27:27;2.85;;;0.40;;
45322;SDS011;31382;50.200;8.674;2022-12-29T04:32:29;2.35;;;0.50;;
45322;SDS011;31382;50.200;8.674;2022-12-29T04:37:30;1.95;;;0.47;;
45322;SDS011;31382;50.200;8.674;2022-12-29T04:42:31;1.58;;;0.40;;
45322;SDS011;31382;50.200;8.674;2022-12-29T04:47:33;0.70;;;0.30;;
45322;SDS011;31382;50.200;8.674;2022-12-29T04:52:34;4.43;;;0.52;;
45322;SDS011;31382;50.200;8.674;2022-12-29T04:57:36;1.25;;;0.40;;
45322;SDS011;31382;50.200;8.674;2022-12-29T05:02:37;2.65;;;0.80;;
45322;SDS011;31382;50.200;8.674;2022-12-29T05:07:39;3.15;;;0.30;;
45322;SDS011;31382;50.200;8.674;2022-12-29T05:12:41;0.65;;;0.50;;
45322;SDS011;31382;50.200;8.674;2022-12-29T05:17:42;0.40;;;0.28;;
45322;SDS011;31382;50.200;8.674;2022-12-29T05:22:43;1.90;;;0.40;;
45322;SDS011;31382;50.200;8.674;2022-12-29T05:27:45;0.85;;;0.30;;
45322;SDS011;31382;50.200;8.674;2022-12-29T05:32:46;2.88;;;0.63;;
45322;SDS011;31382;50.200;8.674;2022-12-29T05:37:48;2.55;;;0.30;;
45322;SDS011;31382;50.200;8.674;2022-12-29T05:42:49;2.83;;;0.40;;
45322;SDS011;31382;50.200;8.674;2022-12-29T05:47:50;0.65;;;0.65;;
45322;SDS011;31382;50.200;8.674;2022-12-29T05:52:52;3.47;;;0.40;;
45322;SDS011;31382;50.200;8.674;2022-12-29T05:57:53;0.75;;;0.43;;
45322;SDS011;31382;50.200;8.674;2022-12-29T06:02:54;1.20;;;0.55;;
45322;SDS011;31382;50.200;8.674;2022-12-29T06:07:56;2.97;;;0.50;;
45322;SDS011;31382;50.200;8.674;2022-12-29T06:12:58;2.25;;;0.30;;
45322;SDS011;31382;50.200;8.674;2022-12-29T06:17:59;1.80;;;0.90;;
45322;SDS011;31382;50.200;8.674;2022-12-29T06:23:00;3.63;;;0.70;;
45322;SDS011;31382;50.200;8.674;2022-12-29T06:28:02;7.07;;;0.65;;
45322;SDS011;31382;50.200;8.674;2022-12-29T06:33:03;2.80;;;0.73;;
45322;SDS011;31382;50.200;8.674;2022-12-29T06:38:05;1.90;;;0.45;;
45322;SDS011;31382;50.200;8.674;2022-12-29T06:43:07;2.15;;;0.40;;
45322;SDS011;31382;50.200;8.674;2022-12-29T06:48:08;0.65;;;0.30;;
45322;SDS011;31382;50.200;8.674;2022-12-29T06:53:10;3.28;;;0.43;;
45322;SDS011;31382;50.200;8.674;2022-12-29T06:58:11;1.77;;;0.40;;
45322;SDS011;31382;50.200;8.674;2022-12-29T07:03:12;2.65;;;0.40;;
45322;SDS011;31382;50.200;8.674;2022-12-29T07:08:14;0.63;;;0.40;;
45322;SDS011;31382;50.200;8.674;2022-12-29T07:13:15;0.98;;;0.60;;
45322;SDS011;31382;50.200;8.674;2022-12-29T07:18:17;4.25;;;1.25;;
45322;SDS011;31382;50.200;8.674;2022-12-29T07:23:18;3.17;;;0.47;;
45322;SDS011;31382;50.200;8.674;2022-12-29T07:28:20;3.83;;;0.93;;
45322;SDS011;31382;50.200;8.674;2022-12-29T07:33:21;1.98;;;0.68;;
45322;SDS011;31382;50.200;8.674;2022-12-29T07:38:22;4.90;;;1.30;;
45322;SDS011;31382;50.200;8.674;2022-12-29T07:43:24;2.78;;;0.60;;
45322;SDS011;31382;50.200;8.674;2022-12-29T07:48:26;2.85;;;0.50;;
45322;SDS011;31382;50.200;8.674;2022-12-29T07:53:27;4.38;;;1.02;;
45322;SDS011;31382;50.200;8.674;2022-12-29T07:58:28;6.45;;;1.08;;
45322;SDS011;31382;50.200;8.674;2022-12-29T08:03:30;3.22;;;0.80;;
45322;SDS011;31382;50.200;8.674;2022-12-29T08:08:31;4.25;;;0.82;;
45322;SDS011;31382;50.200;8.674;2022-12-29T08:13:33;4.65;;;1.17;;
45322;SDS011;31382;50.200;8.674;2022-12-29T08:18:34;2.65;;;0.93;;
45322;SDS011;31382;50.200;8.674;2022-12-29T08:23:36;2.58;;;0.90;;
45322;SDS011;31382;50.200;8.674;2022-12-29T08:28:37;3.42;;;0.80;;
45322;SDS011;31382;50.200;8.674;2022-12-29T08:33:39;3.13;;;0.50;;
45322;SDS011;31382;50.200;8.674;2022-12-29T08:38:40;3.00;;;0.77;;
45322;SDS011;31382;50.200;8.674;2022-12-29T08:43:45;2.95;;;0.70;;
45322;SDS011;31382;50.200;8.674;2022-12-29T08:48:47;2.63;;;0.88;;
45322;SDS011;31382;50.200;8.674;2022-12-29T08:53:48;3.85;;;0.60;;
45322;SDS011;31382;50.200;8.674;2022-12-29T08:58:50;2.53;;;0.82;;
45322;SDS011;31382;50.200;8.674;2022-12-29T09:03:53;3.78;;;0.80;;
45322;SDS011;31382;50.200;8.674;2022-12-29T09:09:15;1.70;;;0.75;;
45322;SDS011;31382;50.200;8.674;2022-12-29T09:14:17;2.63;;;1.00;;
45322;SDS011;31382;50.200;8.674;2022-12-29T09:19:18;5.35;;;1.35;;
45322;SDS011;31382;50.200;8.674;2022-12-29T09:24:19;6.03;;;1.10;;
45322;SDS011;31382;50.200;8.674;2022-12-29T09:29:21;3.58;;;1.35;;
45322;SDS011;31382;50.200;8.674;2022-12-29T09:34:22;2.38;;;1.00;;
45322;SDS011;31382;50.200;8.674;2022-12-29T09:39:26;3.30;;;1.17;;
45322;SDS011;31382;50.200;8.674;2022-12-29T09:44:31;3.95;;;1.00;;
45322;SDS011;31382;50.200;8.674;2022-12-29T09:55:21;1.48;;;0.73;;
45322;SDS011;31382;50.200;8.674;2022-12-29T10:00:36;4.90;;;2.50;;
45322;SDS011;31382;50.200;8.674;2022-12-29T10:10:55;3.88;;;0.80;;
45322;SDS011;31382;50.200;8.674;2022-12-29T10:16:18;3.35;;;0.82;;
45322;SDS011;31382;50.200;8.674;2022-12-29T10:26:47;1.25;;;0.68;;
45322;SDS011;31382;50.200;8.674;2022-12-29T10:31:58;1.52;;;0.60;;
45322;SDS011;31382;50.200;8.674;2022-12-29T10:37:05;1.83;;;0.50;;
45322;SDS011;31382;50.200;8.674;2022-12-29T10:47:40;5.20;;;0.82;;
45322;SDS011;31382;50.200;8.674;2022-12-29T10:52:53;3.08;;;0.30;;
45322;SDS011;31382;50.200;8.674;2022-12-29T10:57:59;3.38;;;0.90;;
45322;SDS011;31382;50.200;8.674;2022-12-29T11:08:25;2.40;;;0.30;;
45322;SDS011;31382;50.200;8.674;2022-12-29T11:13:49;2.00;;;0.30;;
45322;SDS011;31382;50.200;8.674;2022-12-29T11:18:52;2.50;;;0.47;;
45322;SDS011;31382;50.200;8.674;2022-12-29T11:24:00;0.40;;;0.20;;
45322;SDS011;31382;50.200;8.674;2022-12-29T11:29:20;0.22;;;0.22;;
45322;SDS011;31382;50.200;8.674;2022-12-29T11:34:26;3.22;;;0.30;;
45322;SDS011;31382;50.200;8.674;2022-12-29T11:45:02;2.50;;;0.17;;
45322;SDS011;31382;50.200;8.674;2022-12-29T11:50:23;0.60;;;0.10;;
45322;SDS011;31382;50.200;8.674;2022-12-29T11:55:28;1.00;;;0.10;;
45322;SDS011;31382;50.200;8.674;2022-12-29T12:00:31;2.55;;;0.10;;
45322;SDS011;31382;50.200;8.674;2022-12-29T12:05:44;3.30;;;0.30;;
45322;SDS011;31382;50.200;8.674;2022-12-29T12:16:24;2.13;;;0.10;;
45322;SDS011;31382;50.200;8.674;2022-12-29T12:27:29;0.95;;;0.15;;
45322;SDS011;31382;50.200;8.674;2022-12-29T12:32:19;1.05;;;0.30;;
45322;SDS011;31382;50.200;8.674;2022-12-29T12:38:28;1.50;;;0.30;;
45322;SDS011;31382;50.200;8.674;2022-12-29T12:54:35;3.35;;;0.20;;
45322;SDS011;31382;50.200;8.674;2022-12-29T13:04:57;3.33;;;1.02;;
45322;SDS011;31382;50.200;8.674;2022-12-29T13:10:16;1.60;;;0.10;;
45322;SDS011;31382;50.200;8.674;2022-12-29T13:15:36;3.00;;;0.50;;
45322;SDS011;31382;50.200;8.674;2022-12-29T13:21:06;0.83;;;0.20;;
45322;SDS011;31382;50.200;8.674;2022-12-29T13:36:44;0.75;;;0.20;;
45322;SDS011;31382;50.200;8.674;2022-12-29T13:41:53;1.92;;;0.20;;
45322;SDS011;31382;50.200;8.674;2022-12-29T13:46:56;0.75;;;0.20;;
45322;SDS011;31382;50.200;8.674;2022-12-29T13:52:15;1.70;;;0.20;;
45322;SDS011;31382;50.200;8.674;2022-12-29T14:08:01;2.05;;;0.22;;
45322;SDS011;31382;50.200;8.674;2022-12-29T14:13:08;1.35;;;0.43;;
45322;SDS011;31382;50.200;8.674;2022-12-29T14:18:15;1.00;;;0.38;;
45322;SDS011;31382;50.200;8.674;2022-12-29T14:23:26;1.13;;;0.30;;
45322;SDS011;31382;50.200;8.674;2022-12-29T14:28:43;3.53;;;0.35;;
45322;SDS011;31382;50.200;8.674;2022-12-29T14:49:51;2.60;;;0.30;;
45322;SDS011;31382;50.200;8.674;2022-12-29T14:54:54;2.33;;;0.20;;
45322;SDS011;31382;50.200;8.674;2022-12-29T15:05:35;3.60;;;1.60;;
45322;SDS011;31382;50.200;8.674;2022-12-29T15:11:04;2.28;;;0.30;;
45322;SDS011;31382;50.200;8.674;2022-12-29T15:16:20;3.45;;;0.30;;
45322;SDS011;31382;50.200;8.674;2022-12-29T15:21:30;6.40;;;0.55;;
45322;SDS011;31382;50.200;8.674;2022-12-29T15:26:37;6.00;;;0.52;;
45322;SDS011;31382;50.200;8.674;2022-12-29T15:31:47;1.83;;;0.30;;
45322;SDS011;31382;50.200;8.674;2022-12-29T15:36:50;2.75;;;1.40;;
45322;SDS011;31382;50.200;8.674;2022-12-29T15:42:37;2.67;;;0.30;;
45322;SDS011;31382;50.200;8.674;2022-12-29T15:47:37;3.80;;;0.40;;
45322;SDS011;31382;50.200;8.674;2022-12-29T15:52:41;3.50;;;0.30;;
45322;SDS011;31382;50.200;8.674;2022-12-29T15:57:44;4.60;;;0.90;;
45322;SDS011;31382;50.200;8.674;2022-12-29T16:02:48;3.28;;;0.32;;
45322;SDS011;31382;50.200;8.674;2022-12-29T16:07:54;1.60;;;0.50;;
45322;SDS011;31382;50.200;8.674;2022-12-29T16:13:05;2.05;;;0.50;;
45322;SDS011;31382;50.200;8.674;2022-12-29T16:18:27;4.90;;;0.65;;
45322;SDS011;31382;50.200;8.674;2022-12-29T16:23:32;5.00;;;0.73;;
45322;SDS011;31382;50.200;8.674;2022-12-29T16:28:39;2.35;;;0.30;;
45322;SDS011;31382;50.200;8.674;2022-12-29T16:33:45;1.77;;;0.75;;
45322;SDS011;31382;50.200;8.674;2022-12-29T16:38:49;2.47;;;0.82;;
45322;SDS011;31382;50.200;8.674;2022-12-29T16:43:50;4.22;;;0.50;;
45322;SDS011;31382;50.200;8.674;2022-12-29T16:49:14;3.63;;;0.43;;
45322;SDS011;31382;50.200;8.674;2022-12-29T16:54:22;3.28;;;0.50;;
45322;SDS011;31382;50.200;8.674;2022-12-29T16:59:38;4.13;;;0.40;;
45322;SDS011;31382;50.200;8.674;2022-12-29T17:04:43;2.53;;;0.20;;
45322;SDS011;31382;50.200;8.674;2022-12-29T17:09:49;1.98;;;0.60;;
45322;SDS011;31382;50.200;8.674;2022-12-29T17:14:55;3.33;;;0.30;;
45322;SDS011;31382;50.200;8.674;2022-12-29T17:20:00;4.35;;;0.95;;
45322;SDS011;31382;50.200;8.674;2022-12-29T17:25:20;2.53;;;0.50;;
45322;SDS011;31382;50.200;8.674;2022-12-29T17:30:30;2.45;;;0.40;;
45322;SDS011;31382;50.200;8.674;2022-12-29T17:35:34;1.63;;;0.20;;
45322;SDS011;31382;50.200;8.674;2022-12-29T17:40:36;5.75;;;0.50;;
45322;SDS011;31382;50.200;8.674;2022-12-29T17:45:38;2.28;;;0.47;;
45322;SDS011;31382;50.200;8.674;2022-12-29T17:50:40;2.90;;;0.40;;
45322;SDS011;31382;50.200;8.674;2022-12-29T17:55:42;2.63;;;0.40;;
45322;SDS011;31382;50.200;8.674;2022-12-29T18:00:44;3.15;;;0.30;;
45322;SDS011;31382;50.200;8.674;2022-12-29T18:05:46;4.05;;;0.68;;
45322;SDS011;31382;50.200;8.674;2022-12-29T18:10:50;4.55;;;0.40;;
45322;SDS011;31382;50.200;8.674;2022-12-29T18:15:53;5.20;;;0.40;;
45322;SDS011;31382;50.200;8.674;2022-12-29T18:20:58;2.00;;;0.35;;
45322;SDS011;31382;50.200;8.674;2022-12-29T18:31:37;4.20;;;0.50;;
45322;SDS011;31382;50.200;8.674;2022-12-29T18:36:39;1.42;;;0.50;;
45322;SDS011;31382;50.200;8.674;2022-12-29T18:41:40;4.53;;;0.60;;
45322;SDS011;31382;50.200;8.674;2022-12-29T18:46:42;8.73;;;0.60;;
45322;SDS011;31382;50.200;8.674;2022-12-29T18:51:43;5.07;;;0.50;;
45322;SDS011;31382;50.200;8.674;2022-12-29T18:56:45;6.60;;;0.93;;
45322;SDS011;31382;50.200;8.674;2022-12-29T19:01:46;6.10;;;0.70;;
45322;SDS011;31382;50.200;8.674;2022-12-29T19:06:48;6.00;;;0.85;;
45322;SDS011;31382;50.200;8.674;2022-12-29T19:11:49;3.78;;;0.65;;
45322;SDS011;31382;50.200;8.674;2022-12-29T19:16:50;4.47;;;0.65;;
45322;SDS011;31382;50.200;8.674;2022-12-29T19:21:52;5.75;;;1.23;;
45322;SDS011;31382;50.200;8.674;2022-12-29T19:26:56;7.22;;;1.10;;
45322;SDS011;31382;50.200;8.674;2022-12-29T19:31:58;3.75;;;0.90;;
45322;SDS011;31382;50.200;8.674;2022-12-29T19:36:59;2.20;;;0.45;;
45322;SDS011;31382;50.200;8.674;2022-12-29T19:42:00;6.68;;;0.88;;
45322;SDS011;31382;50.200;8.674;2022-12-29T19:47:05;4.45;;;0.60;;
45322;SDS011;31382;50.200;8.674;2022-12-29T19:52:07;4.57;;;1.27;;
45322;SDS011;31382;50.200;8.674;2022-12-29T19:57:08;5.50;;;0.60;;
45322;SDS011;31382;50.200;8.674;2022-12-29T20:02:31;8.52;;;1.05;;
45322;SDS011;31382;50.200;8.674;2022-12-29T20:07:33;8.77;;;0.90;;
45322;SDS011;31382;50.200;8.674;2022-12-29T20:12:36;9.00;;;1.95;;
45322;SDS011;31382;50.200;8.674;2022-12-29T20:17:38;17.67;;;2.85;;
45322;SDS011;31382;50.200;8.674;2022-12-29T20:22:59;12.15;;;1.77;;
45322;SDS011;31382;50.200;8.674;2022-12-29T20:28:01;5.00;;;1.23;;
45322;SDS011;31382;50.200;8.674;2022-12-29T20:33:02;6.80;;;1.85;;
45322;SDS011;31382;50.200;8.674;2022-12-29T20:38:08;11.23;;;3.58;;
45322;SDS011;31382;50.200;8.674;2022-12-29T20:43:10;7.68;;;1.65;;
45322;SDS011;31382;50.200;8.674;2022-12-29T20:48:12;5.55;;;0.70;;
45322;SDS011;31382;50.200;8.674;2022-12-29T20:53:13;5.13;;;0.65;;
45322;SDS011;31382;50.200;8.674;2022-12-29T20:58:14;10.43;;;1.48;;
45322;SDS011;31382;50.200;8.674;2022-12-29T21:03:25;6.43;;;1.63;;
45322;SDS011;31382;50.200;8.674;2022-12-29T21:08:26;10.90;;;2.42;;
45322;SDS011;31382;50.200;8.674;2022-12-29T21:13:30;14.10;;;2.42;;
45322;SDS011;31382;50.200;8.674;2022-12-29T21:18:32;8.57;;;1.73;;
45322;SDS011;31382;50.200;8.674;2022-12-29T21:23:36;10.25;;;2.83;;
45322;SDS011;31382;50.200;8.674;2022-12-29T21:28:39;5.47;;;0.90;;
45322;SDS011;31382;50.200;8.674;2022-12-29T21:33:41;7.13;;;0.70;;
45322;SDS011;31382;50.200;8.674;2022-12-29T21:38:42;8.98;;;1.17;;
45322;SDS011;31382;50.200;8.674;2022-12-29T21:43:44;6.65;;;0.80;;
45322;SDS011;31382;50.200;8.674;2022-12-29T21:49:16;7.35;;;0.70;;
45322;SDS011;31382;50.200;8.674;2022-12-29T21:54:18;7.65;;;0.70;;
45322;SDS011;31382;50.200;8.674;2022-12-29T21:59:55;7.93;;;0.77;;
45322;SDS011;31382;50.200;8.674;2022-12-29T22:05:15;4.40;;;0.88;;
45322;SDS011;31382;50.200;8.674;2022-12-29T22:10:41;10.35;;;0.98;;
45322;SDS011;31382;50.200;8.674;2022-12-29T22:16:02;7.10;;;0.57;;
45322;SDS011;31382;50.200;8.674;2022-12-29T22:21:06;6.32;;;0.85;;
45322;SDS011;31382;50.200;8.674;2022-12-29T22:26:12;5.50;;;0.80;;
45322;SDS011;31382;50.200;8.674;2022-12-29T22:31:28;9.15;;;0.70;;
45322;SDS011;31382;50.200;8.674;2022-12-29T22:36:30;5.82;;;1.17;;
45322;SDS011;31382;50.200;8.674;2022-12-29T22:41:35;5.00;;;0.65;;
45322;SDS011;31382;50.200;8.674;2022-12-29T22:46:37;3.42;;;0.40;;
45322;SDS011;31382;50.200;8.674;2022-12-29T22:51:39;9.57;;;0.50;;
45322;SDS011;31382;50.200;8.674;2022-12-29T22:56:40;5.90;;;0.60;;
45322;SDS011;31382;50.200;8.674;2022-12-29T23:01:42;6.50;;;0.70;;
45322;SDS011;31382;50.200;8.674;2022-12-29T23:06:44;8.98;;;0.60;;
45322;SDS011;31382;50.200;8.674;2022-12-29T23:11:46;7.80;;;1.52;;
45322;SDS011;31382;50.200;8.674;2022-12-29T23:16:50;4.90;;;0.70;;
45322;SDS011;31382;50.200;8.674;2022-12-29T23:32:38;8.02;;;0.93;;
45322;SDS011;31382;50.200;8.674;2022-12-29T23:37:39;12.32;;;1.50;;
45322;SDS011;31382;50.200;8.674;2022-12-29T23:42:41;6.10;;;1.05;;
45322;SDS011;31382;50.200;8.674;2022-12-29T23:47:42;5.72;;;0.93;;
45322;SDS011;31382;50.200;8.674;2022-12-29T23:52:43;4.65;;;0.70;;
45322;SDS011;31382;50.200;8.674;2022-12-29T23:57:45;3.85;;;0.50;;
